createdAt,value
2022-12-27T00:00:07.822Z,19.73
2022-12-27T00:02:40.977Z,28.85
2022-12-27T00:05:09.638Z,27.92
2022-12-27T00:07:36.990Z,27.10
2022-12-27T00:10:06.239Z,24.20
2022-12-27T00:12:33.862Z,24.80
2022-12-27T00:15:02.617Z,19.35
2022-12-27T00:17:29.928Z,22.52
2022-12-27T00:19:57.170Z,19.67
2022-12-27T00:22:24.301Z,23.08
2022-12-27T00:24:51.541Z,21.63
2022-12-27T00:27:18.780Z,29.17
2022-12-27T00:29:46.712Z,23.95
2022-12-27T00:32:14.004Z,18.10
2022-12-27T00:34:41.121Z,17.70
2022-12-27T00:37:08.269Z,20.30
2022-12-27T00:39:35.401Z,18.92
2022-12-27T00:42:02.877Z,21.52
2022-12-27T00:44:30.038Z,16.13
2022-12-27T00:46:57.162Z,18.90
2022-12-27T00:49:24.330Z,21.90
2022-12-27T00:51:51.576Z,18.25
2022-12-27T00:54:18.993Z,16.40
2022-12-27T00:56:46.062Z,17.00
2022-12-27T00:59:13.214Z,17.80
2022-12-27T01:01:41.286Z,23.00
2022-12-27T01:04:11.761Z,27.42
2022-12-27T01:06:39.272Z,22.17
2022-12-27T01:09:06.453Z,17.90
2022-12-27T01:11:34.441Z,18.98
2022-12-27T01:14:04.236Z,19.52
2022-12-27T01:18:59.361Z,16.67
2022-12-27T01:21:29.921Z,16.67
2022-12-27T01:23:57.313Z,15.20
2022-12-27T01:26:24.637Z,17.27
2022-12-27T01:28:53.293Z,16.92
2022-12-27T01:31:25.396Z,15.95
2022-12-27T01:33:58.397Z,14.90
2022-12-27T01:36:27.756Z,13.48
2022-12-27T01:38:55.407Z,17.08
2022-12-27T01:41:46.911Z,25.50
2022-12-27T01:44:40.292Z,16.00
2022-12-27T01:47:28.928Z,14.90
2022-12-27T01:50:31.287Z,13.75
2022-12-27T01:53:23.783Z,14.88
2022-12-27T01:56:11.958Z,14.70
2022-12-27T01:59:11.771Z,15.75
2022-12-27T02:01:43.526Z,13.40
2022-12-27T02:04:17.833Z,14.68
2022-12-27T02:06:46.322Z,15.73
2022-12-27T02:09:20.237Z,14.93
2022-12-27T02:11:54.876Z,16.77
2022-12-27T02:14:37.778Z,15.98
2022-12-27T02:17:10.031Z,13.57
2022-12-27T02:19:40.196Z,13.98
2022-12-27T02:22:25.677Z,12.88
2022-12-27T02:25:33.943Z,16.88
2022-12-27T02:28:17.270Z,15.98
2022-12-27T02:30:47.636Z,17.55
2022-12-27T02:33:24.594Z,18.02
2022-12-27T02:36:02.347Z,19.58
2022-12-27T02:38:37.015Z,16.70
2022-12-27T02:41:27.402Z,13.85
2022-12-27T02:44:15.180Z,13.52
2022-12-27T02:47:01.507Z,11.48
2022-12-27T02:49:53.723Z,12.85
2022-12-27T02:53:07.306Z,11.50
2022-12-27T02:56:17.632Z,12.50
2022-12-27T03:02:07.434Z,12.02
2022-12-27T03:04:43.794Z,10.65
2022-12-27T03:07:25.166Z,10.63
2022-12-27T03:10:16.981Z,11.63
2022-12-27T03:13:24.273Z,11.07
2022-12-27T03:16:32.191Z,10.40
2022-12-27T03:19:47.048Z,10.80
2022-12-27T03:22:35.475Z,10.73
2022-12-27T03:25:22.682Z,12.38
2022-12-27T03:28:12.149Z,12.48
2022-12-27T03:30:59.207Z,11.27
2022-12-27T03:33:28.182Z,11.88
2022-12-27T03:36:33.482Z,10.25
2022-12-27T03:39:04.661Z,9.82
2022-12-27T03:41:58.827Z,11.13
2022-12-27T03:44:26.916Z,16.10
2022-12-27T03:47:12.587Z,16.17
2022-12-27T03:50:03.042Z,15.65
2022-12-27T03:52:43.404Z,15.60
2022-12-27T03:55:11.299Z,14.18
2022-12-27T03:57:38.773Z,13.73
2022-12-27T04:00:07.131Z,12.05
2022-12-27T04:02:40.931Z,13.90
2022-12-27T04:05:08.995Z,12.20
2022-12-27T04:07:36.135Z,13.13
2022-12-27T04:10:22.964Z,12.45
2022-12-27T04:13:08.905Z,12.32
2022-12-27T04:15:54.783Z,14.40
2022-12-27T04:18:40.881Z,15.55
2022-12-27T04:21:26.613Z,14.93
2022-12-27T04:24:12.466Z,15.02
2022-12-27T04:26:58.356Z,14.38
2022-12-27T04:29:44.326Z,12.50
2022-12-27T04:32:30.425Z,14.70
2022-12-27T04:34:57.636Z,14.07
2022-12-27T04:37:24.837Z,14.68
2022-12-27T04:40:10.672Z,15.70
2022-12-27T04:42:56.638Z,16.77
2022-12-27T04:45:42.521Z,17.90
2022-12-27T04:48:34.064Z,18.48
2022-12-27T04:51:20.126Z,16.17
2022-12-27T04:54:06.186Z,14.88
2022-12-27T04:56:33.543Z,13.93
2022-12-27T04:59:19.625Z,14.90
2022-12-27T05:02:05.527Z,15.50
2022-12-27T05:04:36.330Z,15.73
2022-12-27T05:07:26.021Z,15.13
2022-12-27T05:10:11.994Z,13.13
2022-12-27T05:12:57.835Z,15.15
2022-12-27T05:15:25.009Z,15.52
2022-12-27T05:17:52.272Z,15.80
2022-12-27T05:20:19.518Z,16.33
2022-12-27T05:23:05.452Z,16.05
2022-12-27T05:25:36.581Z,17.15
2022-12-27T05:28:10.245Z,16.42
2022-12-27T05:30:40.946Z,17.50
2022-12-27T05:33:08.423Z,21.58
2022-12-27T05:35:35.728Z,24.95
2022-12-27T05:38:03.519Z,25.85
2022-12-27T05:40:30.876Z,20.35
2022-12-27T05:43:00.463Z,18.33
2022-12-27T05:47:56.378Z,17.25
2022-12-27T05:50:23.649Z,19.85
2022-12-27T05:52:51.524Z,18.40
2022-12-27T05:55:19.672Z,18.00
2022-12-27T05:57:46.834Z,21.50
2022-12-27T06:00:14.514Z,20.98
2022-12-27T06:02:42.625Z,20.58
2022-12-27T06:05:10.494Z,18.48
2022-12-27T06:07:38.494Z,21.60
2022-12-27T06:10:08.514Z,26.45
2022-12-27T06:12:36.554Z,22.73
2022-12-27T06:15:06.100Z,24.30
2022-12-27T06:20:00.510Z,24.23
2022-12-27T06:22:27.631Z,26.85
2022-12-27T06:24:54.777Z,23.25
2022-12-27T06:27:21.879Z,25.40
2022-12-27T06:29:49.077Z,25.17
2022-12-27T06:32:17.192Z,21.52
2022-12-27T06:34:45.162Z,19.55
2022-12-27T06:37:12.452Z,21.23
2022-12-27T06:39:39.892Z,19.85
2022-12-27T06:42:07.106Z,20.98
2022-12-27T06:44:34.268Z,20.50
2022-12-27T06:47:01.901Z,21.90
2022-12-27T06:49:29.172Z,20.48
2022-12-27T06:51:59.811Z,20.15
2022-12-27T06:54:28.342Z,21.35
2022-12-27T06:56:56.305Z,22.42
2022-12-27T06:59:24.075Z,20.30
2022-12-27T07:01:51.481Z,21.13
2022-12-27T07:04:18.742Z,23.60
2022-12-27T07:06:45.838Z,23.33
2022-12-27T07:09:12.945Z,27.83
2022-12-27T07:11:40.355Z,31.23
2022-12-27T07:14:10.090Z,32.38
2022-12-27T07:16:37.733Z,32.38
2022-12-27T07:19:05.174Z,44.63
2022-12-27T07:21:32.517Z,31.20
2022-12-27T07:23:59.752Z,22.85
2022-12-27T07:26:30.400Z,23.02
2022-12-27T07:29:00.446Z,22.95
2022-12-27T07:31:31.483Z,27.30
2022-12-27T07:34:01.620Z,23.45
2022-12-27T07:36:36.360Z,25.90
2022-12-27T07:39:04.673Z,23.27
2022-12-27T07:41:32.119Z,23.88
2022-12-27T07:44:02.974Z,22.45
2022-12-27T07:46:30.164Z,23.77
2022-12-27T07:48:58.614Z,25.40
2022-12-27T07:51:27.006Z,24.88
2022-12-27T07:53:54.990Z,27.52
2022-12-27T07:56:28.030Z,28.33
2022-12-27T07:58:57.796Z,28.48
2022-12-27T08:01:28.037Z,30.95
2022-12-27T08:03:55.917Z,32.63
2022-12-27T08:06:29.947Z,33.17
2022-12-27T08:09:04.829Z,34.97
2022-12-27T08:11:32.165Z,29.52
2022-12-27T08:13:59.764Z,37.05
2022-12-27T08:16:27.096Z,38.97
2022-12-27T08:18:54.462Z,37.17
2022-12-27T08:21:22.443Z,46.72
2022-12-27T08:23:49.685Z,47.58
2022-12-27T08:26:16.928Z,43.97
2022-12-27T08:28:44.113Z,37.83
2022-12-27T08:31:13.027Z,37.30
2022-12-27T08:33:41.407Z,42.28
2022-12-27T08:36:36.670Z,41.92
2022-12-27T08:38:59.048Z,42.28
2022-12-27T08:41:26.357Z,58.35
2022-12-27T08:43:53.556Z,62.53
2022-12-27T08:46:20.816Z,56.15
2022-12-27T08:48:49.077Z,52.33
2022-12-27T08:51:28.469Z,44.13
2022-12-27T08:53:58.861Z,41.58
2022-12-27T08:56:26.036Z,42.30
2022-12-27T08:58:53.242Z,39.10
2022-12-27T09:01:20.681Z,38.63
2022-12-27T09:03:47.942Z,40.65
2022-12-27T09:06:21.267Z,36.45
2022-12-27T09:08:50.554Z,33.95
2022-12-27T09:11:31.214Z,32.50
2022-12-27T09:14:01.335Z,29.92
2022-12-27T09:16:30.712Z,26.85
2022-12-27T09:21:30.961Z,22.20
2022-12-27T09:23:58.498Z,12.73
2022-12-27T09:26:29.629Z,19.20
2022-12-27T09:28:58.222Z,16.98
2022-12-27T09:31:26.475Z,19.70
2022-12-27T09:33:54.446Z,18.42
2022-12-27T09:36:28.391Z,25.40
2022-12-27T09:38:57.381Z,26.23
2022-12-27T09:42:46.623Z,26.20
2022-12-27T09:45:12.497Z,22.00
2022-12-27T09:48:06.753Z,19.17
2022-12-27T09:50:57.445Z,23.48
2022-12-27T09:53:56.725Z,20.88
2022-12-27T09:59:38.562Z,18.13
2022-12-27T10:02:23.807Z,21.75
2022-12-27T10:05:19.732Z,17.05
2022-12-27T10:11:31.999Z,17.20
2022-12-27T10:14:23.733Z,19.95
2022-12-27T10:17:39.091Z,17.48
2022-12-27T10:20:34.573Z,11.02
2022-12-27T10:23:18.659Z,9.10
2022-12-27T10:25:48.749Z,7.25
2022-12-27T10:28:41.086Z,7.43
2022-12-27T10:31:19.612Z,5.78
2022-12-27T10:33:48.637Z,7.32
2022-12-27T10:36:30.410Z,6.15
2022-12-27T10:38:57.776Z,5.22
2022-12-27T10:42:05.510Z,8.45
2022-12-27T10:44:32.808Z,2.92
2022-12-27T10:47:00.207Z,5.97
2022-12-27T10:49:30.645Z,10.05
2022-12-27T10:52:19.300Z,6.55
2022-12-27T10:54:57.027Z,7.10
2022-12-27T10:57:32.907Z,4.03
2022-12-27T11:00:21.224Z,1.95
2022-12-27T11:02:55.410Z,2.47
2022-12-27T11:05:32.886Z,2.92
2022-12-27T11:08:17.925Z,2.35
2022-12-27T11:10:45.031Z,2.75
2022-12-27T11:13:18.683Z,4.35
2022-12-27T11:15:58.685Z,2.67
2022-12-27T11:18:26.416Z,2.35
2022-12-27T11:20:58.735Z,2.10
2022-12-27T11:23:35.391Z,2.15
2022-12-27T11:26:06.027Z,3.03
2022-12-27T11:28:41.719Z,2.05
2022-12-27T11:31:13.877Z,2.85
2022-12-27T11:33:54.079Z,3.13
2022-12-27T11:36:41.879Z,2.15
2022-12-27T11:39:46.925Z,2.90
2022-12-27T11:42:42.383Z,2.25
2022-12-27T11:45:26.345Z,2.53
2022-12-27T11:48:00.369Z,3.75
2022-12-27T11:50:27.557Z,2.83
2022-12-27T11:53:00.382Z,5.32
2022-12-27T11:55:56.000Z,2.17
2022-12-27T11:58:37.568Z,1.80
2022-12-27T12:01:17.034Z,2.83
2022-12-27T12:04:03.157Z,3.00
2022-12-27T12:06:52.081Z,4.88
2022-12-27T12:09:40.270Z,8.15
2022-12-27T12:12:44.518Z,2.25
2022-12-27T12:16:05.494Z,3.95
2022-12-27T12:18:52.461Z,3.22
2022-12-27T12:21:45.385Z,3.03
2022-12-27T12:24:52.168Z,3.53
2022-12-27T12:27:38.895Z,3.40
2022-12-27T12:30:43.109Z,3.65
2022-12-27T12:33:37.807Z,4.05
2022-12-27T12:37:01.984Z,3.92
2022-12-27T12:39:54.551Z,4.13
2022-12-27T12:43:09.487Z,4.80
2022-12-27T12:45:52.193Z,4.47
2022-12-27T12:48:46.594Z,4.40
2022-12-27T12:51:33.877Z,4.03
2022-12-27T12:54:09.764Z,4.13
2022-12-27T12:57:19.925Z,4.97
2022-12-27T13:00:20.614Z,5.20
2022-12-27T13:02:55.571Z,5.90
2022-12-27T13:05:37.684Z,4.07
2022-12-27T13:08:42.171Z,5.15
2022-12-27T13:11:43.967Z,3.55
2022-12-27T13:15:12.535Z,3.63
2022-12-27T13:18:07.495Z,4.28
2022-12-27T13:21:03.960Z,3.33
2022-12-27T13:24:06.748Z,3.60
2022-12-27T13:27:01.995Z,4.65
2022-12-27T13:30:06.639Z,3.10
2022-12-27T13:32:55.791Z,3.92
2022-12-27T13:36:00.407Z,4.55
2022-12-27T13:38:54.729Z,4.65
2022-12-27T13:42:02.130Z,4.30
2022-12-27T13:44:31.372Z,5.38
2022-12-27T13:47:11.965Z,5.68
2022-12-27T13:49:47.447Z,4.03
2022-12-27T13:52:59.794Z,3.65
2022-12-27T13:55:52.501Z,3.65
2022-12-27T13:59:03.655Z,4.68
2022-12-27T14:01:30.762Z,4.20
2022-12-27T14:04:12.996Z,3.65
2022-12-27T14:06:46.217Z,4.20
2022-12-27T14:09:22.494Z,4.43
2022-12-27T14:12:27.762Z,4.82
2022-12-27T14:14:59.782Z,4.80
2022-12-27T14:17:48.611Z,5.50
2022-12-27T14:20:49.825Z,5.30
2022-12-27T14:23:46.963Z,6.15
2022-12-27T14:26:53.520Z,7.00
2022-12-27T14:29:45.180Z,4.70
2022-12-27T14:32:47.165Z,3.30
2022-12-27T14:36:09.827Z,3.67
2022-12-27T14:39:11.004Z,7.05
2022-12-27T14:42:02.264Z,6.90
2022-12-27T14:45:25.945Z,4.95
2022-12-27T14:48:25.403Z,3.00
2022-12-27T14:52:12.022Z,4.20
2022-12-27T14:55:03.088Z,4.40
2022-12-27T14:57:35.723Z,5.00
2022-12-27T15:00:24.809Z,3.30
2022-12-27T15:03:16.339Z,6.65
2022-12-27T15:06:11.760Z,5.82
2022-12-27T15:09:19.536Z,20.60
2022-12-27T15:12:28.768Z,6.20
2022-12-27T15:18:22.978Z,4.82
2022-12-27T15:21:20.921Z,4.63
2022-12-27T15:24:05.760Z,6.00
2022-12-27T15:27:00.739Z,26.55
2022-12-27T15:30:06.125Z,26.10
2022-12-27T15:32:52.825Z,6.63
2022-12-27T15:36:06.011Z,4.72
2022-12-27T15:38:54.303Z,4.43
2022-12-27T15:41:49.034Z,4.13
2022-12-27T15:44:39.263Z,7.75
2022-12-27T15:47:38.657Z,5.63
2022-12-27T15:50:29.922Z,7.13
2022-12-27T15:53:15.544Z,7.70
2022-12-27T15:56:11.671Z,9.15
2022-12-27T15:58:39.310Z,15.25
2022-12-27T16:01:20.483Z,10.18
2022-12-27T16:03:51.807Z,9.52
2022-12-27T16:06:34.243Z,8.57
2022-12-27T16:09:22.659Z,6.50
2022-12-27T16:12:02.434Z,8.23
2022-12-27T16:14:34.156Z,11.07
2022-12-27T16:17:38.057Z,11.65
2022-12-27T16:20:20.136Z,7.75
2022-12-27T16:22:58.987Z,7.55
2022-12-27T16:25:34.703Z,8.02
2022-12-27T16:28:23.277Z,8.70
2022-12-27T16:30:59.631Z,10.73
2022-12-27T16:33:26.844Z,10.02
2022-12-27T16:36:15.054Z,7.95
2022-12-27T16:39:05.048Z,9.23
2022-12-27T16:41:37.947Z,8.52
2022-12-27T16:44:24.434Z,10.10
2022-12-27T16:46:59.999Z,13.50
2022-12-27T16:50:17.150Z,10.57
2022-12-27T16:52:47.317Z,15.07
2022-12-27T16:55:48.255Z,15.32
2022-12-27T16:58:21.117Z,14.60
2022-12-27T17:00:51.742Z,17.88
2022-12-27T17:03:21.613Z,19.92
2022-12-27T17:06:30.127Z,18.77
2022-12-27T17:08:37.496Z,18.67
2022-12-27T17:11:25.705Z,13.73
2022-12-27T17:14:24.685Z,13.70
2022-12-27T17:17:22.520Z,13.30
2022-12-27T17:20:00.187Z,7.03
2022-12-27T17:22:34.451Z,5.90
2022-12-27T17:25:03.238Z,6.13
2022-12-27T17:28:26.123Z,6.97
2022-12-27T17:31:30.886Z,7.93
2022-12-27T17:34:42.280Z,13.55
2022-12-27T17:38:12.789Z,10.90
2022-12-27T17:40:57.000Z,12.27
2022-12-27T17:44:23.434Z,10.00
2022-12-27T17:47:20.966Z,6.10
2022-12-27T17:49:49.742Z,5.03
2022-12-27T17:52:42.370Z,5.22
2022-12-27T17:55:44.641Z,5.18
2022-12-27T17:58:17.833Z,4.40
2022-12-27T18:00:58.754Z,5.40
2022-12-27T18:03:38.857Z,3.58
2022-12-27T18:06:06.715Z,3.30
2022-12-27T18:08:35.433Z,3.80
2022-12-27T18:11:05.425Z,3.00
2022-12-27T18:13:43.965Z,3.50
2022-12-27T18:16:20.737Z,3.88
2022-12-27T18:18:52.235Z,5.75
2022-12-27T18:21:28.427Z,8.95
2022-12-27T18:23:56.801Z,8.43
2022-12-27T18:26:41.333Z,6.15
2022-12-27T18:29:11.935Z,3.53
2022-12-27T18:31:49.261Z,5.70
2022-12-27T18:34:36.834Z,6.40
2022-12-27T18:37:12.125Z,5.35
2022-12-27T18:39:48.542Z,5.10
2022-12-27T18:42:40.557Z,5.95
2022-12-27T18:45:33.068Z,9.18
2022-12-27T18:48:03.899Z,10.40
2022-12-27T18:50:33.716Z,8.27
2022-12-27T18:53:34.764Z,7.18
2022-12-27T18:56:31.904Z,4.18
2022-12-27T18:59:16.036Z,3.33
2022-12-27T19:01:46.599Z,3.72
2022-12-27T19:04:13.877Z,3.10
2022-12-27T19:07:13.403Z,1.88
2022-12-27T19:09:54.724Z,4.10
2022-12-27T19:12:38.609Z,2.80
2022-12-27T19:15:19.212Z,3.28
2022-12-27T19:17:50.402Z,2.55
2022-12-27T19:20:31.069Z,2.92
2022-12-27T19:23:05.456Z,2.72
2022-12-27T19:25:38.916Z,2.13
2022-12-27T19:28:12.056Z,2.13
2022-12-27T19:30:41.488Z,2.45
2022-12-27T19:35:56.603Z,2.50
2022-12-27T19:38:27.199Z,4.22
2022-12-27T19:41:03.531Z,4.22
2022-12-27T19:43:38.701Z,2.17
2022-12-27T19:46:05.980Z,3.35
2022-12-27T19:48:33.267Z,5.13
2022-12-27T19:51:00.493Z,3.67
2022-12-27T19:53:39.362Z,3.25
2022-12-27T19:56:11.147Z,3.53
2022-12-27T19:58:38.547Z,2.53
2022-12-27T20:01:06.332Z,2.88
2022-12-27T20:03:33.598Z,4.28
2022-12-27T20:06:13.526Z,5.90
2022-12-27T20:08:50.182Z,7.00
2022-12-27T20:11:20.699Z,7.63
2022-12-27T20:13:48.218Z,11.43
2022-12-27T20:16:18.689Z,12.73
2022-12-27T20:18:46.578Z,18.65
2022-12-27T20:21:19.311Z,17.05
2022-12-27T20:23:47.420Z,11.23
2022-12-27T20:26:20.587Z,11.38
2022-12-27T20:28:49.485Z,12.07
2022-12-27T20:31:19.025Z,13.63
2022-12-27T20:33:54.619Z,27.40
2022-12-27T20:36:23.468Z,26.67
2022-12-27T20:38:50.785Z,18.20
2022-12-27T20:41:20.614Z,16.45
2022-12-27T20:43:53.067Z,18.38
2022-12-27T20:46:20.425Z,14.95
2022-12-27T20:48:47.790Z,12.55
2022-12-27T20:51:19.327Z,11.30
2022-12-27T20:53:48.660Z,12.73
2022-12-27T20:56:16.843Z,10.43
2022-12-27T20:58:44.201Z,7.40
2022-12-27T21:01:15.067Z,7.82
2022-12-27T21:03:42.926Z,6.35
2022-12-27T21:06:19.988Z,5.78
2022-12-27T21:08:55.937Z,5.22
2022-12-27T21:11:27.471Z,6.43
2022-12-27T21:13:54.948Z,6.28
2022-12-27T21:16:27.942Z,5.18
2022-12-27T21:18:56.229Z,6.82
2022-12-27T21:21:28.290Z,7.80
2022-12-27T21:23:59.468Z,7.65
2022-12-27T21:26:31.324Z,5.05
2022-12-27T21:28:59.876Z,4.35
2022-12-27T21:31:27.584Z,3.27
2022-12-27T21:33:55.757Z,3.47
2022-12-27T21:36:26.042Z,4.80
2022-12-27T21:38:54.245Z,3.58
2022-12-27T21:41:29.015Z,9.10
2022-12-27T21:43:56.675Z,3.05
2022-12-27T21:46:31.795Z,4.50
2022-12-27T21:49:02.494Z,4.40
2022-12-27T21:51:32.044Z,7.80
2022-12-27T21:54:00.077Z,9.15
2022-12-27T21:56:28.253Z,8.60
2022-12-27T21:58:57.440Z,8.70
2022-12-27T22:01:30.823Z,10.60
2022-12-27T22:04:17.905Z,7.10
2022-12-27T22:06:47.504Z,7.47
2022-12-27T22:09:15.697Z,11.10
2022-12-27T22:11:43.021Z,8.88
2022-12-27T22:14:10.449Z,12.45
2022-12-27T22:16:39.104Z,14.63
2022-12-27T22:19:09.209Z,10.43
2022-12-27T22:21:38.072Z,10.73
2022-12-27T22:24:06.271Z,14.13
2022-12-27T22:26:36.845Z,14.73
2022-12-27T22:29:05.592Z,12.00
2022-12-27T22:31:35.980Z,11.32
2022-12-27T22:36:32.021Z,10.98
2022-12-27T22:39:00.809Z,14.05
2022-12-27T22:41:34.648Z,9.32
2022-12-27T22:44:09.462Z,8.32
2022-12-27T22:49:25.443Z,4.82
2022-12-27T22:51:52.737Z,4.90
2022-12-27T22:54:19.918Z,3.60
2022-12-27T22:56:47.135Z,3.75
2022-12-27T22:59:16.034Z,2.88
2022-12-27T23:01:45.138Z,3.25
2022-12-27T23:04:14.100Z,3.30
2022-12-27T23:06:41.897Z,3.78
2022-12-27T23:09:10.742Z,4.55
2022-12-27T23:11:40.432Z,3.78
2022-12-27T23:14:16.436Z,2.20
2022-12-27T23:16:48.838Z,2.95
2022-12-27T23:19:19.760Z,1.98
2022-12-27T23:21:48.100Z,2.45
2022-12-27T23:24:15.700Z,2.50
2022-12-27T23:26:43.075Z,2.50
2022-12-27T23:29:14.087Z,1.65
2022-12-27T23:31:54.633Z,1.60
2022-12-27T23:34:28.065Z,1.80
2022-12-27T23:36:59.393Z,1.70
2022-12-27T23:39:27.556Z,2.40
2022-12-27T23:41:55.040Z,2.78
2022-12-27T23:44:33.125Z,3.08
2022-12-27T23:47:04.589Z,6.88
2022-12-27T23:49:31.803Z,3.53
2022-12-27T23:51:59.163Z,3.38
2022-12-27T23:54:26.468Z,3.13
2022-12-27T23:56:53.654Z,4.38
2022-12-27T23:59:20.968Z,3.33
